Main page
METAR-TAF:

METAR-TAF

Airports :

Auckland Airport

Auckland, New Zealand

latitude: 37-01S, longitude: 174-48E, elevation: 7 m

Current weather observation

The report was made 23 minutes ago, at 22:30 UTC
Wind 16 kt from the North/Northeast, varying between North and East/Northeast
Temperature 22°C
Humidity 73%
Pressure 1020 hPa
Visibility 10 km or more

METAR: NZAA 042230Z AUTO 03016KT 010V070 9999 FEW025/// 22/17 Q1020 NOSIG

Time: 11:53 (22:53 UTC)

Forecast

The report was made 5 hours and 50 minutes ago, at 17:03 UTC
Forecast valid from 04 at 18 UTC to 05 at 18 UTC
Wind 12 kt from the Northeast
Visibility 10 km or more
Few clouds at a height of 3000 ft
Scattered clouds at a height of 4000 ft
light rain showers
Becoming
from 05 at 02 UTC to 05 at 04 UTC
Wind 15 kt from the Northeast with gusts up to 25 kt
Becoming
from 05 at 08 UTC to 05 at 10 UTC
Wind 10 kt from the North/Northeast

TAF: NZAA 041703Z 0418/0518 04012KT 9999 -SHRA FEW030 SCT040 BECMG 0502/0504 04015G25KT BECMG 0508/0510 02010KT

Weather observations and forecasts of more than 4000 airports (METAR and TAF reports).

The available stations are represented by yellow and red dots on the map.

Hover mouse over dot to see the name of the station.

Then click to see weather observations and forecasts.

To change the map : click on the green buttons with a black cross to zoom in, on the green button with a dash to zoom out, or on the green arrows for adjacent maps.


METAR-TAF: